Resums METAR propers

 

KSJC - San Jose, California, USA
Distància des de l'estació: NE 14km
Actualització: 19/11/2017 23:53 UTC
Molt cobert
Molt cobert
 Vent del NO
Vent: NO 9 km/h
Temperatura: 18°C
Rosada: 6°C
Humitat: 46%
Baròmetre: 1017.6 hPa
Nuvolositat: Molt cobert
Visibilitat: 16 km
Detalls nuvolositat: Alguns núvols 975 m
Parcialment cobert 3658 m
Molt cobert 5486 m
2017/11/19 23:53 KSJC 192353Z 31005KT 10SM FEW032 SCT120 BKN180 18/06 A3005 RMK AO2 SLP176 HZ FEW032 T01830061 10183 20122 58008
KNUQ - Moffett Nas/Mtn, California, USA
Distància des de l'estació: N 14km
Actualització: 19/11/2017 23:56 UTC
Seré
Seré
 Vent del NNO
Vent: NNO 7 km/h
Temperatura: 16°C
Rosada: 8°C
Humitat: 59%
Baròmetre: 1018.3 hPa
Nuvolositat: Seré
Visibilitat: 16 km
2017/11/19 23:56 KNUQ 192356Z 34004KT 10SM CLR 16/08 A3007 RMK AO2 SLP184 T01560078 10167 20122 56009
 
KPAO - Palo Alto, California, USA
Distància des de l'estació: NNO 23km
Actualització: 19/11/2017 23:47 UTC
Molt cobert
Molt cobert
 Vent del varies
Vent: varies 9 km/h
Temperatura: 16°C
Rosada: 10°C
Humitat: 68%
Baròmetre: 1017.9 hPa
Nuvolositat: Molt cobert
Visibilitat: 16 km
Detalls nuvolositat: Molt cobert 6096 m
2017/11/19 23:47 KPAO 192347Z VRB05KT 10SM BKN200 16/10 A3006
KRHV - San Jose/Reid, California, USA
Distància des de l'estació: ENE 19km
Actualització: 19/11/2017 23:47 UTC

 
Visibilitat: 55 miles
2017/11/19 23:47 KRHV 192347Z 34005 10SM SCT100 BKN180 18/06 A3003
 
KOAK - Oakland, California, USA
Distància des de l'estació: NNO 50km
Actualització: 19/11/2017 23:53 UTC
Molt cobert
Molt cobert
 Vent del ONO
Vent: ONO 11 km/h
Temperatura: 15°C
Rosada: 9°C
Humitat: 68%
Baròmetre: 1018.3 hPa
Nuvolositat: Molt cobert
Visibilitat: 16 km
Detalls nuvolositat: Alguns núvols 4877 m
Molt cobert 6096 m
2017/11/19 23:53 KOAK 192353Z 30006KT 10SM FEW160 BKN200 15/09 A3007 RMK AO2 SLP182 T01500089 10156 20111 55008
KSQL - San Carlos Airpo, California, USA
Distància des de l'estació: NO 34km
Actualització: 19/11/2017 23:55 UTC
Molt cobert
Molt cobert
 Vent del varies
Vent: varies 6 km/h
Temperatura: 15°C
Rosada: 9°C
Humitat: 68%
Baròmetre: 1018.3 hPa
Nuvolositat: Molt cobert
Visibilitat: 16 km
Detalls nuvolositat: Molt cobert 6096 m
2017/11/19 23:55 KSQL 192355Z VRB03KT 10SM BKN200 15/09 A3007
 
KSFO - San Francisco, California, USA
Distància des de l'estació: NO 49km
Actualització: 19/11/2017 23:56 UTC
Molt cobert
Molt cobert
 Vent del N
Vent: N 6 km/h
Temperatura: 15°C
Rosada: 9°C
Humitat: 68%
Baròmetre: 1018.3 hPa
Nuvolositat: Molt cobert
Visibilitat: 16 km
Detalls nuvolositat: Alguns núvols 5182 m
Molt cobert 6096 m
2017/11/19 23:56 KSFO 192356Z 01003KT 10SM FEW170 BKN200 15/09 A3007 RMK AO2 SLP183 T01500089 10150 20117 55009
KE16 - San Martin, California, USA
Distància des de l'estació: ESE 43km
Actualització: 19/11/2017 23:55 UTC
Seré
Seré
 Vent del NO
Vent: NO 11 km/h
Temperatura: 18°C
Rosada: 6°C
Humitat: 46%
Baròmetre: 1017.9 hPa
Nuvolositat: Seré
Visibilitat: 16 km
2017/11/19 23:55 KE16 192355Z AUTO 31006KT 10SM CLR 18/06 A3006 RMK AO2 PWINO PNO
 
KWVI - Watsonville, California, USA
Distància des de l'estació: SSE 44km
Actualització: 19/11/2017 23:53 UTC
Seré
Seré
 Vent del OSO
Vent: OSO 9 km/h
Temperatura: 16°C
Rosada: 9°C
Humitat: 63%
Baròmetre: 1017.6 hPa
Nuvolositat: Seré
Visibilitat: 16 km
2017/11/19 23:53 KWVI 192353Z AUTO 24005KT 10SM CLR 16/09 A3005 RMK AO2 SLP177 T01610089 10189 20117 58005
KHAF - Half Moon Bay, California, USA
Distància des de l'estació: ONO 50km
Actualització: 19/11/2017 23:55 UTC
Seré
Seré
 Vent del NO
Vent: NO 9 km/h
Temperatura: 14°C
Rosada: 9°C
Humitat: 72%
Baròmetre: 1017.9 hPa
Nuvolositat: Seré
Visibilitat: 16 km
2017/11/19 23:55 KHAF 192355Z AUTO 31005KT 10SM CLR 14/09 A3006 RMK AO2
 
KHWD - Hayward, California, USA
Distància des de l'estació: N 44km
Actualització: 19/11/2017 23:54 UTC
Seré
Seré
 Vent del O
Vent: O 11 km/h
Temperatura: 16°C
Rosada: 7°C
Humitat: 55%
Baròmetre: 1017.9 hPa
Nuvolositat: Seré
Visibilitat: 16 km
2017/11/19 23:54 KHWD 192354Z 28006KT 10SM CLR 16/07 A3006 RMK AO2 SLP190 T01560067 10161 20122 55008
KLVK - Livermore, California, USA
Distància des de l'estació: NNE 51km
Actualització: 19/11/2017 23:53 UTC
Seré
Seré
 Vent del ENE
Vent: ENE 9 km/h
Temperatura: 16°C
Rosada: 7°C
Humitat: 55%
Baròmetre: 1017.6 hPa
Nuvolositat: Seré
Visibilitat: 16 km
2017/11/19 23:53 KLVK 192353Z 07005KT 10SM CLR 16/07 A3005 RMK AO2 SLP175 T01610067 10167 20100 57008